Time,TemperatureF,DewpointF,PressureIn,WindDirection,WindDirectionDegrees,WindSpeedMPH,WindSpeedGustMPH,Humidity,HourlyPrecipIn,Conditions,Clouds,dailyrainin,SoftwareType,DateUTC
2013-01-29 15:10:00,42.2,42.2,29.80,SSE,162,10.0,10.0,100,0.00,,,0.24,Wunderground v.1.15,2013-01-29 20:10:00,
2013-01-29 15:12:00,42.3,42.3,29.81,South,183,10.0,13.0,100,0.00,,,0.24,Wunderground v.1.15,2013-01-29 20:12:00,
2013-01-29 15:15:00,42.4,42.4,29.81,South,181,10.0,13.0,100,0.00,,,0.24,Wunderground v.1.15,2013-01-29 20:15:00,
2013-01-29 15:22:00,42.5,42.5,29.80,SSE,163,10.0,10.0,100,0.00,,,0.24,Wunderground v.1.15,2013-01-29 20:22:00,
2013-01-29 15:28:00,42.5,42.5,29.80,SSE,163,9.0,10.0,100,0.00,,,0.24,Wunderground v.1.15,2013-01-29 20:28:00,
2013-01-29 15:31:00,42.5,42.5,29.80,SSE,161,9.0,10.0,100,0.00,,,0.24,Wunderground v.1.15,2013-01-29 20:31:00,
2013-01-29 15:38:00,42.6,42.6,29.80,South,178,9.0,19.0,100,0.00,,,0.24,Wunderground v.1.15,2013-01-29 20:38:00,
2013-01-29 15:44:00,42.7,42.7,29.80,South,173,8.0,19.0,100,0.00,,,0.24,Wunderground v.1.15,2013-01-29 20:44:00,
2013-01-29 15:50:00,42.9,42.9,29.80,South,173,8.0,8.0,100,0.00,,,0.24,Wunderground v.1.15,2013-01-29 20:50:00,
2013-01-29 15:55:00,43.0,43.0,29.80,South,175,9.0,19.0,100,0.00,,,0.24,Wunderground v.1.15,2013-01-29 20:55:00,
2013-01-29 16:02:00,43.2,43.2,29.81,SSE,168,9.0,9.0,100,0.00,,,0.24,Wunderground v.1.15,2013-01-29 21:02:00,
2013-01-29 16:08:00,43.3,43.3,29.80,South,171,9.0,11.0,100,0.00,,,0.24,Wunderground v.1.15,2013-01-29 21:08:00,
2013-01-29 16:14:00,43.5,43.5,29.81,South,173,9.0,10.0,100,0.00,,,0.24,Wunderground v.1.15,2013-01-29 21:14:00,
2013-01-29 16:20:00,43.6,43.6,29.81,South,172,9.0,9.0,100,0.00,,,0.24,Wunderground v.1.15,2013-01-29 21:20:00,
2013-01-29 16:26:00,43.6,43.6,29.80,SSE,160,8.0,9.0,100,0.00,,,0.24,Wunderground v.1.15,2013-01-29 21:26:00,
2013-01-29 16:32:00,43.6,43.6,29.80,South,172,7.0,16.0,100,0.00,,,0.24,Wunderground v.1.15,2013-01-29 21:32:00,
2013-01-29 16:37:00,43.6,43.6,29.81,South,180,7.0,16.0,100,0.00,,,0.24,Wunderground v.1.15,2013-01-29 21:37:00,
2013-01-29 16:44:00,44.0,44.0,29.81,South,190,9.0,16.0,100,0.00,,,0.24,Wunderground v.1.15,2013-01-29 21:44:00,
2013-01-29 16:49:00,44.3,44.3,29.82,South,188,9.0,16.0,100,0.00,,,0.24,Wunderground v.1.15,2013-01-29 21:49:00,
2013-01-29 16:56:00,44.7,44.7,29.83,South,190,9.0,16.0,100,0.00,,,0.25,Wunderground v.1.15,2013-01-29 21:56:00,
2013-01-29 17:02:00,44.8,44.8,29.82,South,178,9.0,10.0,100,0.32,,,0.28,Wunderground v.1.15,2013-01-29 22:02:00,
2013-01-29 17:08:00,44.6,44.6,29.82,South,173,8.0,10.0,100,0.12,,,0.29,Wunderground v.1.15,2013-01-29 22:08:00,
2013-01-29 17:14:00,44.4,44.4,29.82,South,175,8.0,10.0,100,0.05,,,0.29,Wunderground v.1.15,2013-01-29 22:14:00,
2013-01-29 17:19:00,44.3,44.3,29.81,South,175,7.0,8.0,100,0.04,,,0.29,Wunderground v.1.15,2013-01-29 22:19:00,
2013-01-29 17:26:00,44.3,44.3,29.81,SSE,166,7.0,11.0,100,0.00,,,0.29,Wunderground v.1.15,2013-01-29 22:26:00,
2013-01-29 17:31:00,44.2,44.2,29.81,South,169,7.0,14.0,100,0.00,,,0.29,Wunderground v.1.15,2013-01-29 22:31:00,
2013-01-29 17:38:00,44.3,44.3,29.81,SSE,163,7.0,14.0,100,0.00,,,0.29,Wunderground v.1.15,2013-01-29 22:38:00,
2013-01-29 17:43:00,44.3,44.3,29.81,SSE,160,7.0,14.0,100,0.00,,,0.29,Wunderground v.1.15,2013-01-29 22:43:00,
2013-01-29 17:50:00,44.3,44.3,29.80,SSE,165,7.0,14.0,100,0.00,,,0.29,Wunderground v.1.15,2013-01-29 22:50:00,
2013-01-29 17:56:00,44.3,44.3,29.80,SSE,168,7.0,14.0,100,0.00,,,0.29,Wunderground v.1.15,2013-01-29 22:56:00,
2013-01-29 18:02:00,44.3,44.3,29.81,South,169,7.0,8.0,100,0.00,,,0.29,Wunderground v.1.15,2013-01-29 23:02:00,
2013-01-29 18:08:00,44.4,44.4,29.81,South,177,8.0,10.0,100,0.00,,,0.29,Wunderground v.1.15,2013-01-29 23:08:00,
2013-01-29 18:14:00,44.7,44.7,29.81,South,177,8.0,10.0,100,0.00,,,0.29,Wunderground v.1.15,2013-01-29 23:14:00,
2013-01-29 18:19:00,44.9,44.9,29.80,South,178,8.0,9.0,100,0.00,,,0.29,Wunderground v.1.15,2013-01-29 23:19:00,
2013-01-29 18:26:00,45.0,45.0,29.80,South,175,8.0,9.0,100,0.00,,,0.29,Wunderground v.1.15,2013-01-29 23:26:00,
2013-01-29 18:32:00,45.2,45.2,29.81,South,176,9.0,9.0,100,0.00,,,0.29,Wunderground v.1.15,2013-01-29 23:32:00,
2013-01-29 18:37:00,45.4,45.4,29.81,South,173,9.0,11.0,100,0.00,,,0.29,Wunderground v.1.15,2013-01-29 23:37:00,
2013-01-29 18:44:00,45.5,45.5,29.81,South,170,7.0,11.0,100,0.00,,,0.29,Wunderground v.1.15,2013-01-29 23:44:00,
2013-01-29 18:49:00,45.7,45.7,29.80,South,173,7.0,7.0,100,0.00,,,0.29,Wunderground v.1.15,2013-01-29 23:49:00,
2013-01-29 18:56:00,45.8,45.8,29.81,South,175,7.0,11.0,100,0.00,,,0.29,Wunderground v.1.15,2013-01-29 23:56:00,
2013-01-29 19:01:00,46.0,46.0,29.80,South,171,8.0,13.0,100,0.00,,,0.29,Wunderground v.1.15,2013-01-30 00:01:00,
2013-01-29 19:08:00,46.1,46.1,29.81,South,170,7.0,13.0,100,0.00,,,0.29,Wunderground v.1.15,2013-01-30 00:08:00,
2013-01-29 19:14:00,46.2,46.2,29.80,SSE,164,7.0,11.0,100,0.00,,,0.29,Wunderground v.1.15,2013-01-30 00:14:00,
2013-01-29 19:20:00,46.3,46.3,29.80,South,171,7.0,7.0,100,0.00,,,0.29,Wunderground v.1.15,2013-01-30 00:20:00,
2013-01-29 19:26:00,46.3,46.3,29.80,South,170,8.0,8.0,100,0.00,,,0.29,Wunderground v.1.15,2013-01-30 00:26:00,
2013-01-29 19:32:00,46.6,46.6,29.80,South,173,8.0,12.0,100,0.00,,,0.29,Wunderground v.1.15,2013-01-30 00:32:00,
2013-01-29 19:37:00,46.7,46.7,29.80,South,172,9.0,13.0,100,0.00,,,0.29,Wunderground v.1.15,2013-01-30 00:37:00,
2013-01-29 19:44:00,46.7,46.7,29.80,South,174,7.0,12.0,100,0.00,,,0.29,Wunderground v.1.15,2013-01-30 00:44:00,
2013-01-29 19:50:00,46.7,46.7,29.79,South,172,7.0,7.0,100,0.00,,,0.29,Wunderground v.1.15,2013-01-30 00:50:00,
2013-01-29 19:56:00,46.5,46.5,29.79,South,178,8.0,12.0,100,0.00,,,0.29,Wunderground v.1.15,2013-01-30 00:56:00,
2013-01-29 20:02:00,46.5,46.5,29.79,South,180,9.0,10.0,100,0.00,,,0.29,Wunderground v.1.15,2013-01-30 01:02:00,
2013-01-29 20:07:00,46.5,46.5,29.79,South,180,10.0,11.0,100,0.00,,,0.29,Wunderground v.1.15,2013-01-30 01:07:00,
2013-01-29 20:14:00,46.6,46.6,29.79,South,171,11.0,12.0,100,0.00,,,0.29,Wunderground v.1.15,2013-01-30 01:14:00,
2013-01-29 20:19:00,46.7,46.7,29.79,South,177,10.0,10.0,100,0.00,,,0.29,Wunderground v.1.15,2013-01-30 01:19:00,
2013-01-29 20:26:00,46.5,46.5,29.79,South,172,9.0,10.0,100,0.00,,,0.29,Wunderground v.1.15,2013-01-30 01:26:00,
2013-01-29 20:31:00,46.4,46.4,29.79,South,174,9.0,10.0,100,0.00,,,0.29,Wunderground v.1.15,2013-01-30 01:31:00,
2013-01-29 20:38:00,46.5,46.5,29.79,SSE,162,9.0,13.0,100,0.39,,,0.31,Wunderground v.1.15,2013-01-30 01:38:00,
2013-01-29 20:44:00,46.8,46.8,29.79,South,178,9.0,13.0,100,0.09,,,0.31,Wunderground v.1.15,2013-01-30 01:44:00,
2013-01-29 20:50:00,46.9,46.9,29.79,South,180,10.0,13.0,100,0.09,,,0.32,Wunderground v.1.15,2013-01-30 01:50:00,
2013-01-29 20:56:00,47.0,47.0,29.79,South,184,11.0,13.0,100,0.05,,,0.32,Wunderground v.1.15,2013-01-30 01:56:00,
2013-01-29 21:01:00,47.1,47.1,29.78,SSE,155,10.0,11.0,100,0.00,,,0.32,Wunderground v.1.15,2013-01-30 02:01:00,
2013-01-29 21:08:00,47.0,47.0,29.78,SSE,159,9.0,11.0,100,0.00,,,0.32,Wunderground v.1.15,2013-01-30 02:08:00,
2013-01-29 21:13:00,46.8,46.8,29.78,South,178,8.0,8.0,100,0.00,,,0.32,Wunderground v.1.15,2013-01-30 02:13:00,
2013-01-29 21:20:00,46.7,46.7,29.78,South,178,9.0,9.0,100,0.00,,,0.32,Wunderground v.1.15,2013-01-30 02:20:00,
2013-01-29 21:25:00,46.8,46.8,29.78,South,178,10.0,13.0,100,0.00,,,0.32,Wunderground v.1.15,2013-01-30 02:25:00,
2013-01-29 21:32:00,46.9,46.9,29.78,South,171,10.0,16.0,100,0.00,,,0.32,Wunderground v.1.15,2013-01-30 02:32:00,
2013-01-29 21:37:00,46.9,46.9,29.78,South,173,9.0,16.0,100,0.00,,,0.33,Wunderground v.1.15,2013-01-30 02:37:00,
2013-01-29 21:44:00,47.0,47.0,29.78,South,181,10.0,16.0,100,0.00,,,0.33,Wunderground v.1.15,2013-01-30 02:44:00,
2013-01-29 21:49:00,47.1,47.1,29.78,South,170,11.0,16.0,100,0.04,,,0.34,Wunderground v.1.15,2013-01-30 02:49:00,
2013-01-29 21:56:00,47.3,47.3,29.78,SSE,168,11.0,16.0,100,0.04,,,0.34,Wunderground v.1.15,2013-01-30 02:56:00,
2013-01-29 22:01:00,47.3,47.3,29.78,South,178,9.0,10.0,100,0.04,,,0.34,Wunderground v.1.15,2013-01-30 03:01:00,
2013-01-29 22:08:00,47.2,47.2,29.79,South,180,10.0,12.0,100,0.00,,,0.34,Wunderground v.1.15,2013-01-30 03:08:00,
2013-01-29 22:14:00,47.3,47.3,29.79,South,180,9.0,11.0,100,0.00,,,0.34,Wunderground v.1.15,2013-01-30 03:14:00,
2013-01-29 22:20:00,47.4,47.4,29.79,South,184,10.0,11.0,100,0.00,,,0.34,Wunderground v.1.15,2013-01-30 03:20:00,
2013-01-29 22:26:00,47.4,47.4,29.79,South,179,11.0,11.0,100,0.00,,,0.34,Wunderground v.1.15,2013-01-30 03:26:00,
2013-01-29 22:31:00,47.4,47.4,29.79,South,177,11.0,18.0,100,0.00,,,0.35,Wunderground v.1.15,2013-01-30 03:31:00,
2013-01-29 22:38:00,47.4,47.4,29.78,South,170,10.0,18.0,100,0.00,,,0.35,Wunderground v.1.15,2013-01-30 03:38:00,
2013-01-29 22:43:00,47.4,47.4,29.78,SSE,162,8.0,18.0,100,0.00,,,0.35,Wunderground v.1.15,2013-01-30 03:43:00,
2013-01-29 22:50:00,47.3,47.3,29.78,SSE,165,7.0,18.0,100,0.00,,,0.35,Wunderground v.1.15,2013-01-30 03:50:00,
2013-01-29 22:55:00,47.3,47.3,29.77,SSE,156,8.0,18.0,100,0.00,,,0.35,Wunderground v.1.15,2013-01-30 03:55:00,
2013-01-29 23:02:00,47.2,47.2,29.76,SSE,154,9.0,13.0,100,0.00,,,0.35,Wunderground v.1.15,2013-01-30 04:02:00,
2013-01-29 23:07:00,47.3,47.3,29.77,SSE,161,9.0,13.0,100,0.00,,,0.35,Wunderground v.1.15,2013-01-30 04:07:00,
2013-01-29 23:13:00,47.3,47.3,29.76,SSE,165,8.0,9.0,100,0.00,,,0.35,Wunderground v.1.15,2013-01-30 04:13:00,
2013-01-29 23:20:00,47.2,47.2,29.77,SSE,167,7.0,7.0,100,0.00,,,0.35,Wunderground v.1.15,2013-01-30 04:20:00,
2013-01-29 23:25:00,47.2,47.2,29.77,SSE,168,8.0,10.0,100,0.00,,,0.35,Wunderground v.1.15,2013-01-30 04:25:00,
2013-01-29 23:32:00,47.3,47.3,29.76,South,176,8.0,9.0,100,0.00,,,0.35,Wunderground v.1.15,2013-01-30 04:32:00,
2013-01-29 23:37:00,47.3,47.3,29.76,South,176,8.0,16.0,100,0.00,,,0.35,Wunderground v.1.15,2013-01-30 04:37:00,
2013-01-29 23:44:00,47.3,47.3,29.76,SSE,167,8.0,16.0,100,0.00,,,0.35,Wunderground v.1.15,2013-01-30 04:44:00,
2013-01-29 23:50:00,47.3,47.3,29.76,SSE,167,8.0,16.0,100,0.00,,,0.35,Wunderground v.1.15,2013-01-30 04:50:00,
2013-01-29 23:56:00,47.3,47.3,29.76,South,175,8.0,16.0,100,0.00,,,0.35,Wunderground v.1.15,2013-01-30 04:56:00,